Time;durP1;ratioP1;P1;durP2;ratioP2;P2;SDS_P1;SDS_P2;PMS_P1;PMS_P2;Temp;Humidity;BMP_temperature;BMP_pressure;BME280_temperature;BME280_humidity;BME280_pressure;Samples;Min_cycle;Max_cycle;Signal;HPM_P1;HPM_P2
2022/11/24 00:01:19;;;;;;;9.02;3.30;;;8.40;99.90;;;8.25;100.00;99478.47;5000375;28;20322;-75
2022/11/24 00:04:02;;;;;;;6.22;2.70;;;8.30;99.90;;;8.30;100.00;99483.75;5005250;28;20254;-76
2022/11/24 00:06:32;;;;;;;7.95;2.95;;;8.30;99.90;;;8.37;100.00;99500.50;5002626;28;20920;-76
2022/11/24 00:09:01;;;;;;;6.60;2.47;;;8.40;99.90;;;8.34;100.00;99496.97;5000697;28;20264;-76
2022/11/24 00:11:32;;;;;;;2.78;1.20;;;8.40;99.90;;;8.30;100.00;99491.66;5005370;28;20255;-76
2022/11/24 00:14:00;;;;;;;7.20;3.33;;;8.30;99.90;;;8.23;100.00;99481.97;5003159;28;20258;-76
2022/11/24 00:16:34;;;;;;;2.35;1.25;;;8.30;99.90;;;8.11;100.00;99482.81;5000865;28;20278;-76
2022/11/24 00:19:03;;;;;;;4.10;1.60;;;8.20;99.90;;;8.03;100.00;99485.41;5008618;28;20287;-76
2022/11/24 00:21:31;;;;;;;5.50;1.92;;;8.10;99.90;;;8.03;100.00;99489.81;5007711;28;20342;-76
2022/11/24 00:23:59;;;;;;;4.78;1.70;;;8.10;99.90;;;8.00;100.00;99487.16;5008725;28;20263;-76
2022/11/24 00:26:31;;;;;;;4.03;1.58;;;8.10;99.90;;;8.05;100.00;99497.72;5012111;28;20223;-76
2022/11/24 00:29:01;;;;;;;8.48;2.88;;;8.10;99.90;;;8.04;100.00;99507.38;5009440;28;20228;-76
2022/11/24 00:31:36;;;;;;;4.85;1.90;;;8.10;99.90;;;8.13;100.00;99511.78;5003752;28;20227;-76
2022/11/24 00:34:08;;;;;;;3.55;1.42;;;8.10;99.90;;;8.24;100.00;99526.75;5008191;28;20648;-76
2022/11/24 00:36:37;;;;;;;6.32;2.40;;;8.20;99.90;;;8.31;100.00;99535.56;5007247;28;20295;-76
2022/11/24 00:39:07;;;;;;;4.32;1.60;;;8.30;99.90;;;8.27;100.00;99523.25;5007177;28;20708;-76
2022/11/24 00:41:34;;;;;;;4.40;1.60;;;8.30;99.90;;;8.30;100.00;99526.78;5008350;28;20658;-75
2022/11/24 00:44:02;;;;;;;6.97;2.45;;;8.30;99.90;;;8.27;100.00;99518.88;5010043;28;20232;-76
2022/11/24 00:46:29;;;;;;;3.90;1.92;;;8.30;99.90;;;8.26;100.00;99511.84;5003635;28;20326;-76
2022/11/24 00:48:57;;;;;;;4.88;1.80;;;8.30;99.90;;;8.30;100.00;99516.25;5009116;28;20235;-76
2022/11/24 00:51:26;;;;;;;4.25;1.98;;;8.40;99.90;;;8.25;100.00;99510.06;5000738;28;20228;-76
2022/11/24 00:53:55;;;;;;;4.22;1.63;;;8.30;99.90;;;8.14;100.00;99498.63;5010122;28;20251;-76
2022/11/24 00:56:23;;;;;;;5.80;1.90;;;8.20;99.90;;;8.41;100.00;99525.97;5010360;28;20301;-76
2022/11/24 00:58:51;;;;;;;9.48;3.15;;;8.30;99.90;;;8.23;100.00;99498.66;5004044;28;20248;-76
2022/11/24 01:01:22;;;;;;;6.53;2.10;;;8.30;99.90;;;8.21;100.00;99505.69;5007305;28;20258;-76
2022/11/24 01:03:50;;;;;;;7.60;2.65;;;8.30;99.90;;;8.12;100.00;99502.13;5006156;28;20228;-76
2022/11/24 01:06:21;;;;;;;4.20;1.42;;;8.20;99.90;;;8.11;100.00;99498.63;5011110;28;20266;-76
2022/11/24 01:08:49;;;;;;;7.53;2.55;;;8.20;99.90;;;8.21;100.00;99507.44;4990588;28;20314;-76
2022/11/24 01:11:20;;;;;;;6.72;2.33;;;8.20;99.90;;;8.24;100.00;99510.06;5001864;28;20277;-76
2022/11/24 01:13:52;;;;;;;5.35;2.42;;;8.30;99.90;;;8.37;100.00;99521.56;4988298;28;20310;-76
2022/11/24 01:16:23;;;;;;;5.20;1.80;;;8.40;99.90;;;8.38;100.00;99526.84;5005319;28;20315;-76
2022/11/24 01:18:51;;;;;;;8.77;2.85;;;8.40;99.90;;;8.49;100.00;99532.13;4991748;28;20228;-76
2022/11/24 01:21:20;;;;;;;4.82;1.70;;;8.50;99.90;;;8.58;100.00;99540.94;4998330;28;20223;-76
2022/11/24 01:23:47;;;;;;;5.05;1.75;;;8.60;99.90;;;8.67;100.00;99540.09;5003196;28;20283;-76
2022/11/24 01:26:17;;;;;;;6.00;2.08;;;8.70;99.90;;;8.71;100.00;99548.88;5001711;28;20251;-76
2022/11/24 01:28:44;;;;;;;7.32;2.38;;;8.70;99.90;;;8.64;100.00;99537.44;5001424;28;20251;-76
2022/11/24 01:31:14;;;;;;;4.57;1.70;;;8.70;99.90;;;8.87;100.00;99570.00;5009133;28;20285;-76
2022/11/24 01:33:41;;;;;;;6.93;2.40;;;8.80;99.90;;;8.95;100.00;99564.75;5005095;28;20275;-75
2022/11/24 01:36:08;;;;;;;3.88;1.42;;;9.00;99.90;;;8.85;100.00;99553.31;5004320;28;20232;-76
2022/11/24 01:38:35;;;;;;;4.53;1.58;;;8.90;99.90;;;8.86;100.00;99554.19;5009650;28;20687;-76
2022/11/24 01:41:11;;;;;;;6.78;2.42;;;8.90;99.90;;;8.94;100.00;99566.50;5008334;28;20227;-76
2022/11/24 01:43:39;;;;;;;4.15;1.42;;;9.00;99.90;;;9.01;100.00;99570.03;4996540;28;20252;-76
2022/11/24 01:46:35;;;;;;;4.50;1.58;;;9.00;99.90;;;9.01;100.00;99570.03;5004347;28;20316;-76
2022/11/24 01:49:16;;;;;;;5.68;2.05;;;9.10;99.90;;;9.06;100.00;99583.22;4996407;28;20330;-76
2022/11/24 01:52:11;;;;;;;8.13;2.67;;;9.00;99.90;;;8.90;100.00;99567.38;5006298;28;20226;-76
2022/11/24 01:54:44;;;;;;;8.43;2.88;;;9.00;99.90;;;9.01;100.00;99579.69;5001245;28;20683;-76
2022/11/24 01:57:35;;;;;;;4.90;1.65;;;9.00;99.90;;;9.09;100.00;99576.19;5005136;28;20232;-76
2022/11/24 02:00:08;;;;;;;3.92;1.52;;;9.10;99.90;;;8.99;100.00;99564.75;5001107;28;20318;-76
2022/11/24 02:02:35;;;;;;;5.93;2.10;;;9.00;99.90;;;9.03;100.00;99563.00;5001905;28;20326;-76
2022/11/24 02:05:10;;;;;;;5.32;1.92;;;9.10;99.90;;;9.00;100.00;99560.38;5007839;28;20232;-76
2022/11/24 02:07:37;;;;;;;4.75;1.70;;;9.00;99.90;;;8.94;100.00;99557.72;5003920;28;20323;-75
2022/11/24 02:10:14;;;;;;;3.47;1.30;;;9.00;99.90;;;8.84;100.00;99556.81;5008604;28;20243;-77
2022/11/24 02:12:46;;;;;;;7.00;2.42;;;8.90;99.90;;;8.93;100.00;99545.41;5012012;28;20263;-76
2022/11/24 02:15:16;;;;;;;4.88;1.75;;;9.00;99.90;;;8.64;100.00;99530.44;4997155;28;20252;-76
2022/11/24 02:17:43;;;;;;;5.88;2.10;;;8.80;99.90;;;8.70;100.00;99547.13;5005007;28;20262;-76
2022/11/24 02:20:12;;;;;;;6.28;2.22;;;8.70;99.90;;;8.63;100.00;99543.59;5002748;28;20762;-76
2022/11/24 02:22:43;;;;;;;4.80;1.77;;;8.70;99.90;;;8.45;100.00;99536.53;5005532;28;20311;-76
2022/11/24 02:25:58;;;;;;;22.48;7.90;;;8.50;99.90;;;8.31;100.00;99531.16;5018602;28;20259;-76
2022/11/24 02:28:29;;;;;;;6.90;2.33;;;8.40;99.90;;;8.57;100.00;99562.03;4998069;28;20233;-75
2022/11/24 02:30:58;;;;;;;2.45;1.40;;;8.50;99.90;;;8.57;100.00;99557.63;5003918;28;20244;-75
2022/11/24 02:33:26;;;;;;;5.20;1.77;;;8.60;99.90;;;8.35;100.00;99540.00;4999474;28;20231;-75
2022/11/24 02:35:53;;;;;;;3.95;1.55;;;8.40;99.90;;;8.21;100.00;99531.13;5006068;28;20232;-76
2022/11/24 02:38:34;;;;;;;6.25;2.17;;;8.30;99.90;;;8.10;100.00;99535.47;5004294;28;20695;-75
2022/11/24 02:41:17;;;;;;;3.25;1.20;;;8.20;99.90;;;8.03;100.00;99531.94;5000923;28;20309;-76
2022/11/24 02:43:54;;;;;;;5.13;1.65;;;8.10;99.90;;;8.03;100.00;99545.09;5001708;28;20307;-75
2022/11/24 02:46:22;;;;;;;4.50;1.65;;;8.10;99.90;;;8.00;100.00;99545.97;5004269;28;20236;-75
2022/11/24 02:48:49;;;;;;;10.82;3.60;;;8.10;99.90;;;7.96;100.00;99549.44;5002819;28;20322;-75
2022/11/24 02:51:16;;;;;;;5.68;1.92;;;8.00;99.90;;;8.00;100.00;99559.13;4991019;28;20262;-76
2022/11/24 02:53:44;;;;;;;4.22;1.63;;;8.00;99.90;;;7.96;100.00;99559.97;5000049;28;20314;-75
2022/11/24 02:56:11;;;;;;;5.47;1.90;;;8.00;99.90;;;7.77;100.00;99550.19;5008150;28;20320;-75
2022/11/24 02:58:38;;;;;;;3.78;1.42;;;7.80;99.90;;;7.66;100.00;99554.50;5001910;28;20239;-75
2022/11/24 03:01:06;;;;;;;6.20;2.20;;;7.70;99.90;;;7.52;100.00;99556.16;4989332;28;20255;-75
2022/11/24 03:03:33;;;;;;;3.40;1.38;;;7.60;99.90;;;7.48;100.00;99571.03;4998187;28;20227;-76
2022/11/24 03:06:00;;;;;;;4.22;1.50;;;7.50;99.90;;;7.47;100.00;99573.66;5004693;28;20281;-75
2022/11/24 03:08:27;;;;;;;5.85;2.25;;;7.50;99.90;;;7.42;100.00;99575.38;5002159;28;20235;-75
2022/11/24 03:10:54;;;;;;;4.50;1.70;;;7.50;99.90;;;7.37;100.00;99584.09;5006215;28;20335;-75
2022/11/24 03:13:21;;;;;;;4.43;1.60;;;7.40;99.90;;;7.39;100.00;99579.75;5003811;28;20224;-75
2022/11/24 03:15:48;;;;;;;5.63;2.03;;;7.40;99.90;;;7.39;100.00;99579.75;5000312;28;20780;-75
2022/11/24 03:18:15;;;;;;;5.18;1.85;;;7.40;99.90;;;7.41;100.00;99582.38;5015647;28;20223;-76
2022/11/24 03:20:43;;;;;;;5.30;1.88;;;7.40;99.90;;;7.42;100.00;99584.16;5004828;28;20319;-75
2022/11/24 03:23:10;;;;;;;3.60;1.38;;;7.40;99.90;;;7.39;100.00;99587.63;5004655;28;20306;-75
2022/11/24 03:25:37;;;;;;;3.58;1.58;;;7.40;99.90;;;7.41;100.00;99581.50;5011612;28;20238;-75
2022/11/24 03:28:04;;;;;;;5.25;1.88;;;7.40;99.90;;;7.42;100.00;99591.16;5011284;28;20307;-76
2022/11/24 03:30:31;;;;;;;4.03;1.55;;;7.40;99.90;;;7.43;100.00;99590.28;5004574;28;20231;-75
2022/11/24 03:32:58;;;;;;;3.70;1.33;;;7.50;99.90;;;7.37;100.00;99586.75;5000608;28;20223;-75
2022/11/24 03:35:25;;;;;;;7.97;2.72;;;7.40;99.90;;;7.37;100.00;99594.63;5010848;28;20302;-76
2022/11/24 03:37:52;;;;;;;4.43;1.60;;;7.40;99.90;;;7.36;100.00;99598.13;5011915;28;20227;-75
2022/11/24 03:40:19;;;;;;;4.43;1.58;;;7.40;99.90;;;7.34;100.00;99601.63;5009245;28;20266;-76
2022/11/24 03:42:46;;;;;;;7.22;2.42;;;7.40;99.90;;;7.35;100.00;99609.50;5009370;28;20678;-75
2022/11/24 03:45:13;;;;;;;7.20;2.55;;;7.40;99.90;;;7.37;100.00;99618.31;5002813;28;20224;-76
2022/11/24 03:48:01;;;;;;;6.88;2.35;;;7.40;99.90;;;7.42;100.00;99620.97;5006361;28;20227;-75
2022/11/24 03:50:28;;;;;;;5.07;1.92;;;7.40;99.90;;;7.43;100.00;99638.50;5011777;28;20345;-76
2022/11/24 03:52:55;;;;;;;3.95;1.45;;;7.50;99.90;;;7.45;100.00;99646.41;5020091;28;20318;-76
2022/11/24 03:55:22;;;;;;;8.85;3.15;;;7.50;99.90;;;7.43;100.00;99641.16;5008816;28;20222;-76
2022/11/24 03:57:49;;;;;;;7.90;2.67;;;7.50;99.90;;;7.44;100.00;99647.28;5013769;28;20324;-75
2022/11/24 04:00:16;;;;;;;8.15;2.80;;;7.50;99.90;;;7.45;100.00;99635.91;5007419;28;20326;-75
2022/11/24 04:02:43;;;;;;;6.25;2.13;;;7.50;99.90;;;7.44;100.00;99640.28;5008900;28;20312;-75
2022/11/24 04:05:10;;;;;;;4.72;1.60;;;7.50;99.90;;;7.45;100.00;99642.03;4998590;28;20244;-75
2022/11/24 04:07:37;;;;;;;5.25;1.92;;;7.50;99.90;;;7.46;100.00;99635.03;4998852;28;20266;-75
2022/11/24 04:10:05;;;;;;;4.55;1.52;;;7.50;99.90;;;7.45;100.00;99644.66;4997608;28;20229;-76
2022/11/24 04:12:44;;;;;;;3.25;1.30;;;7.50;99.90;;;7.44;100.00;99639.41;5029174;28;20227;-75
2022/11/24 04:15:16;;;;;;;5.32;1.85;;;7.50;99.90;;;7.42;100.00;99647.28;5017009;28;20231;-75
2022/11/24 04:17:45;;;;;;;4.57;1.70;;;7.50;99.90;;;7.42;100.00;99630.59;5001041;28;20258;-76
2022/11/24 04:20:14;;;;;;;3.80;1.48;;;7.50;99.90;;;7.41;100.00;99626.22;5009141;28;20247;-75
2022/11/24 04:22:42;;;;;;;5.90;2.15;;;7.50;99.90;;;7.38;100.00;99638.47;5009130;28;20270;-75
2022/11/24 04:25:09;;;;;;;5.13;1.92;;;7.40;99.90;;;7.38;100.00;99638.47;5008793;28;20235;-76
2022/11/24 04:27:37;;;;;;;9.63;3.50;;;7.40;99.90;;;7.37;100.00;99641.97;5009135;28;20318;-75
2022/11/24 04:30:07;;;;;;;4.90;1.80;;;7.40;99.90;;;7.35;100.00;99646.34;5007768;28;20224;-75
2022/11/24 04:32:34;;;;;;;4.22;1.52;;;7.40;99.90;;;7.33;100.00;99647.19;5003578;28;20575;-76
2022/11/24 04:35:02;;;;;;;3.60;1.77;;;7.40;99.90;;;7.32;100.00;99654.19;5009384;28;20227;-75
2022/11/24 04:37:29;;;;;;;3.20;1.40;;;7.40;99.90;;;7.32;100.00;99650.69;5006736;28;20744;-75
2022/11/24 04:39:56;;;;;;;6.28;2.08;;;7.40;99.90;;;7.31;100.00;99655.06;5002202;28;20255;-75
2022/11/24 04:42:23;;;;;;;5.88;1.92;;;7.40;99.90;;;7.35;100.00;99667.38;5007121;28;20259;-75
2022/11/24 04:44:50;;;;;;;5.57;1.85;;;7.40;99.90;;;7.38;100.00;99669.16;5011428;28;20319;-76
2022/11/24 04:47:22;;;;;;;7.65;2.95;;;7.40;99.90;;;7.35;100.00;99664.75;5010578;28;20310;-75
2022/11/24 04:49:50;;;;;;;5.53;1.90;;;7.40;99.90;;;7.34;100.00;99670.88;4998507;28;20335;-76
2022/11/24 04:52:19;;;;;;;4.88;1.67;;;7.40;99.90;;;7.32;100.00;99680.50;5010055;28;20251;-76
2022/11/24 04:54:48;;;;;;;5.18;1.83;;;7.40;99.90;;;7.43;100.00;99688.50;5024882;28;20284;-76
2022/11/24 04:57:23;;;;;;;7.95;2.60;;;7.40;99.90;;;7.55;100.00;99691.25;5021410;28;20278;-75
2022/11/24 04:59:52;;;;;;;3.80;1.40;;;7.50;99.90;;;7.56;100.00;99689.50;5005592;28;20313;-75
2022/11/24 05:02:19;;;;;;;5.65;2.00;;;7.60;99.90;;;7.51;100.00;99685.94;5008902;28;20282;-75
2022/11/24 05:04:47;;;;;;;6.20;2.13;;;7.60;99.90;;;7.42;100.00;99676.22;5008741;28;20283;-75
2022/11/24 05:07:15;;;;;;;4.35;1.60;;;7.50;99.90;;;7.41;100.00;99691.97;5004973;28;20235;-75
2022/11/24 05:12:32;;;;;;;4.63;1.60;;;7.40;99.90;;;7.51;100.00;99715.75;5008756;28;20263;-76
2022/11/24 05:15:01;;;;;;;4.00;1.50;;;7.50;99.90;;;7.59;100.00;99705.31;5010247;28;20262;-76
2022/11/24 05:17:35;;;;;;;4.97;1.77;;;7.60;99.90;;;7.80;100.00;99720.41;5008558;28;20260;-76
2022/11/24 05:20:04;;;;;;;3.80;1.35;;;7.70;99.90;;;7.68;100.00;99710.66;5007730;28;20323;-76
2022/11/24 05:22:31;;;;;;;3.90;1.40;;;7.70;99.90;;;7.53;100.00;99694.72;5005797;28;20319;-76
2022/11/24 05:24:58;;;;;;;7.82;2.75;;;7.60;99.90;;;7.48;100.00;99688.53;4998640;28;20231;-76
2022/11/24 05:27:25;;;;;;;6.13;2.03;;;7.50;99.90;;;7.44;100.00;99692.00;5018072;28;20270;-75
2022/11/24 05:29:52;;;;;;;4.10;1.38;;;7.50;99.90;;;7.44;100.00;99690.25;5006225;28;20320;-76
2022/11/24 05:32:19;;;;;;;5.90;2.05;;;7.50;99.90;;;7.48;100.00;99706.94;5001200;28;20318;-75
2022/11/24 05:34:46;;;;;;;4.88;1.75;;;7.50;99.90;;;7.48;100.00;99707.84;4998956;28;20274;-74
2022/11/24 05:37:13;;;;;;;4.75;1.58;;;7.50;99.90;;;7.55;100.00;99712.28;5005216;28;20228;-75
2022/11/24 05:39:41;;;;;;;5.70;2.00;;;7.60;99.90;;;7.59;100.00;99707.94;5006549;28;20232;-78
2022/11/24 05:42:51;;;;;;;6.20;2.10;;;7.60;99.90;;;7.64;100.00;99711.50;5010286;28;20282;-79
2022/11/24 05:44:58;;;;;;;2.83;1.30;;;7.70;99.90;;;7.64;100.00;99722.91;5000958;28;20264;-79
2022/11/24 05:47:26;;;;;;;3.00;1.33;;;7.70;99.90;;;7.60;100.00;99720.22;5000803;28;20378;-78
2022/11/24 05:49:53;;;;;;;5.03;1.63;;;7.70;99.90;;;7.58;100.00;99730.72;5010062;28;20271;-78
2022/11/24 05:52:20;;;;;;;5.20;1.90;;;7.60;99.90;;;7.55;100.00;99729.81;5011076;28;20268;-78
2022/11/24 05:54:47;;;;;;;5.93;1.98;;;7.60;99.90;;;7.52;100.00;99729.78;5007844;28;20231;-79
2022/11/24 05:57:16;;;;;;;4.97;1.77;;;7.60;99.90;;;7.49;100.00;99740.28;5005191;28;20319;-76
2022/11/24 05:59:44;;;;;;;4.68;1.65;;;7.50;99.90;;;7.47;100.00;99742.00;5001184;28;20645;-76
2022/11/24 06:02:11;;;;;;;4.20;1.50;;;7.50;99.90;;;7.44;100.00;99737.59;5021154;28;20232;-76
2022/11/24 06:04:38;;;;;;;3.60;1.40;;;7.50;99.90;;;7.48;100.00;99754.31;5001568;28;20266;-76
2022/11/24 06:07:10;;;;;;;7.88;2.70;;;7.50;99.90;;;7.48;100.00;99754.31;5090267;23;20284;-83
2022/11/24 06:09:39;;;;;;;4.78;2.40;;;7.50;99.90;;;7.42;100.00;99756.88;5008646;28;20242;-82
2022/11/24 06:12:07;;;;;;;10.13;3.35;;;7.50;99.90;;;7.41;100.00;99757.72;5000341;28;20224;-82
2022/11/24 06:14:35;;;;;;;9.55;3.03;;;7.40;99.90;;;7.42;100.00;99764.75;4990051;28;20248;-81
2022/11/24 06:17:03;;;;;;;7.20;2.65;;;7.40;99.90;;;7.58;100.00;99780.72;5005700;28;20315;-82
2022/11/24 06:19:31;;;;;;;8.68;2.97;;;7.60;99.90;;;7.67;100.00;99791.34;5008456;28;20315;-81
2022/11/24 06:21:58;;;;;;;8.50;2.90;;;7.70;99.90;;;7.71;100.00;99793.16;5001287;28;20231;-81
2022/11/24 06:24:25;;;;;;;11.90;3.80;;;7.80;99.90;;;7.76;100.00;99801.09;5011385;28;20251;-83
2022/11/24 06:26:52;;;;;;;10.25;3.42;;;7.80;99.90;;;7.73;100.00;99803.69;5007944;28;20338;-83
2022/11/24 06:29:19;;;;;;;8.00;2.55;;;7.90;99.90;;;7.69;100.00;99792.25;4991081;28;20252;-82
2022/11/24 06:31:46;;;;;;;9.43;3.00;;;7.80;99.90;;;7.66;100.00;99778.19;4996099;28;20228;-82
2022/11/24 06:34:13;;;;;;;7.68;2.50;;;7.70;99.90;;;7.65;100.00;99785.19;5000292;28;20551;-82
2022/11/24 06:36:40;;;;;;;9.27;3.03;;;7.70;99.90;;;7.65;100.00;99784.31;4999868;28;20232;-81
2022/11/24 06:39:09;;;;;;;9.07;3.00;;;7.70;99.90;;;7.63;100.00;99791.31;4994264;28;20261;-82
2022/11/24 06:41:36;;;;;;;10.73;3.50;;;7.70;99.90;;;7.58;100.00;99791.25;5002052;28;20236;-82
2022/11/24 06:44:04;;;;;;;13.82;4.53;;;7.60;99.90;;;7.54;100.00;99799.09;4996569;28;20240;-82
2022/11/24 06:46:34;;;;;;;9.85;3.13;;;7.60;99.90;;;7.51;100.00;99794.69;5002846;28;20228;-81
2022/11/24 06:49:01;;;;;;;7.68;2.63;;;7.60;99.90;;;7.50;100.00;99802.56;5006053;28;20287;-81
2022/11/24 06:51:28;;;;;;;7.75;2.88;;;7.50;99.90;;;7.50;100.00;99803.44;4999757;28;20239;-83
2022/11/24 06:53:55;;;;;;;9.68;3.15;;;7.50;99.90;;;7.54;100.00;99815.75;5000860;28;20228;-82
2022/11/24 06:56:22;;;;;;;7.13;2.55;;;7.60;99.90;;;7.53;100.00;99810.50;5001656;28;20255;-82
2022/11/24 06:58:52;;;;;;;12.95;4.25;;;7.60;99.90;;;7.55;100.00;99816.66;5005668;28;20268;-84
2022/11/24 07:01:22;;;;;;;11.52;3.92;;;7.60;99.90;;;7.54;100.00;99817.50;5009610;28;20236;-83
2022/11/24 07:03:51;;;;;;;9.77;3.03;;;7.60;99.90;;;7.54;100.00;99815.75;5005229;28;20731;-82
2022/11/24 07:06:20;;;;;;;10.68;3.20;;;7.60;99.90;;;7.53;100.00;99819.25;5002301;28;20295;-82
2022/11/24 07:08:48;;;;;;;14.68;4.72;;;7.60;99.90;;;7.56;100.00;99821.94;5003657;28;20305;-82
2022/11/24 07:11:21;;;;;;;10.02;2.88;;;7.60;99.90;;;7.56;100.00;99828.94;5008862;28;20238;-83
2022/11/24 07:13:50;;;;;;;12.88;3.63;;;7.60;99.90;;;7.57;100.00;99831.59;5008499;28;20231;-81
2022/11/24 07:16:26;;;;;;;9.82;3.05;;;7.60;99.90;;;7.59;100.00;99842.13;5015581;28;20238;-82
2022/11/24 07:18:54;;;;;;;19.92;5.97;;;7.60;99.90;;;7.58;100.00;99849.13;4997903;28;20254;-81
2022/11/24 07:21:23;;;;;;;11.50;3.35;;;7.60;99.90;;;7.59;100.00;99848.28;5011253;28;20278;-83
2022/11/24 07:23:54;;;;;;;11.05;3.20;;;7.70;99.90;;;7.61;100.00;99862.34;5006815;28;20235;-84
2022/11/24 07:26:22;;;;;;;16.08;4.78;;;7.60;99.90;;;7.58;100.00;99851.78;4997418;28;20224;-84
2022/11/24 07:28:49;;;;;;;22.65;6.60;;;7.60;99.90;;;7.54;100.00;99855.22;5004247;28;20232;-83
2022/11/24 07:31:20;;;;;;;12.15;3.38;;;7.60;99.90;;;7.48;100.00;99851.66;5002002;28;20285;-82
2022/11/24 07:33:52;;;;;;;11.15;3.22;;;7.60;99.90;;;7.43;100.00;99856.84;5011954;28;20239;-80
2022/11/24 07:36:20;;;;;;;11.02;3.15;;;;;;;7.44;100.00;99868.25;5004929;28;20303;-81
2022/11/24 07:38:47;;;;;;;8.85;3.42;;;7.50;99.90;;;7.43;100.00;99877.00;5005726;28;20232;-84
2022/11/24 07:41:18;;;;;;;12.13;3.70;;;7.50;99.90;;;7.41;100.00;99881.38;5006179;28;20231;-84
2022/11/24 07:43:46;;;;;;;9.57;3.03;;;7.40;99.90;;;7.42;100.00;99884.03;5013759;28;20228;-81
2022/11/24 07:46:16;;;;;;;9.70;2.97;;;7.50;99.90;;;7.45;100.00;99889.31;5005618;28;20243;-82
2022/11/24 07:48:44;;;;;;;8.43;2.95;;;7.50;99.90;;;7.45;100.00;99896.31;5009084;28;20227;-82
2022/11/24 07:51:12;;;;;;;7.93;3.03;;;7.40;99.90;;;7.46;100.00;99898.09;5003087;28;20263;-81
2022/11/24 07:53:39;;;;;;;4.60;2.15;;;;;;;7.46;100.00;99893.72;4996571;28;20232;-82
2022/11/24 07:56:08;;;;;;;6.45;2.10;;;7.50;99.90;;;7.48;100.00;99901.63;5001271;28;20294;-82
2022/11/24 07:58:36;;;;;;;12.63;3.78;;;7.50;99.90;;;7.48;100.00;99912.16;5003316;28;20228;-85
2022/11/24 08:01:16;;;;;;;8.23;2.65;;;7.50;99.90;;;7.49;100.00;99909.53;5013552;28;20224;-81
2022/11/24 08:03:44;;;;;;;13.45;4.18;;;7.50;99.90;;;7.54;100.00;99928.91;5002457;28;20251;-82
2022/11/24 08:06:14;;;;;;;10.23;3.13;;;7.60;99.90;;;7.60;100.00;99934.25;5000336;28;20290;-82
2022/11/24 08:08:54;;;;;;;18.58;5.45;;;7.70;99.90;;;7.63;100.00;99931.66;5001406;28;20297;-81
2022/11/24 08:11:21;;;;;;;15.75;4.43;;;7.70;99.90;;;7.66;100.00;99938.69;5000389;28;20278;-82
2022/11/24 08:13:48;;;;;;;9.50;3.05;;;7.70;99.90;;;7.68;100.00;99943.13;5006200;28;20232;-84
2022/11/24 08:16:23;;;;;;;12.30;3.65;;;7.70;99.90;;;7.79;100.00;99951.16;5008913;28;20230;-84
2022/11/24 08:18:53;;;;;;;19.35;5.78;;;7.80;99.90;;;7.90;100.00;99972.38;4998448;28;20231;-85
2022/11/24 08:21:22;;;;;;;11.88;3.70;;;7.90;99.90;;;7.96;100.00;99970.69;5003738;28;20325;-84
2022/11/24 08:23:54;;;;;;;9.10;2.95;;;8.00;99.90;;;8.03;100.00;99969.91;5002330;28;20239;-84
2022/11/24 08:26:23;;;;;;;11.80;3.72;;;8.10;99.90;;;8.13;100.00;99972.66;4985684;28;20238;-84
2022/11/24 08:28:57;;;;;;;14.68;4.60;;;8.20;99.90;;;8.18;100.00;99963.94;5008165;28;20231;-84
2022/11/24 08:31:31;;;;;;;11.95;3.65;;;8.20;99.90;;;8.23;100.00;99970.13;5003453;28;20283;-84
2022/11/24 08:34:00;;;;;;;8.45;2.83;;;8.20;99.90;;;8.28;100.00;99978.97;5002719;28;20227;-84
2022/11/24 08:36:28;;;;;;;8.73;2.92;;;8.30;99.90;;;8.33;100.00;99976.41;5010790;28;20301;-85
2022/11/24 08:38:57;;;;;;;10.70;3.38;;;8.70;99.90;;;8.48;100.00;99988.88;5002351;28;20331;-84
2022/11/24 08:41:25;;;;;;;9.07;2.88;;;8.50;99.90;;;8.52;100.00;99988.91;5010910;28;20266;-84
2022/11/24 08:43:56;;;;;;;11.02;3.47;;;8.50;99.90;;;8.73;100.00;99990.88;5004855;28;20236;-84
2022/11/24 08:46:23;;;;;;;11.88;3.65;;;8.70;99.90;;;8.85;100.00;99992.72;5005447;28;20659;-83
2022/11/24 08:48:54;;;;;;;15.05;4.30;;;8.80;99.90;;;8.96;100.00;99991.94;4996715;28;20250;-84
2022/11/24 08:51:24;;;;;;;7.78;2.60;;;8.90;99.90;;;9.00;100.00;99982.31;5006711;28;20274;-84
2022/11/24 08:53:57;;;;;;;9.95;3.20;;;9.00;99.90;;;9.07;100.00;99985.88;5003202;28;20232;-83
2022/11/24 08:56:29;;;;;;;10.65;3.40;;;9.10;99.90;;;9.10;100.00;99978.91;5004509;28;20255;-84
2022/11/24 08:58:57;;;;;;;9.00;2.83;;;9.10;99.90;;;9.16;100.00;99981.59;4998460;28;20327;-84
2022/11/24 09:01:26;;;;;;;8.75;2.72;;;9.20;99.90;;;9.16;100.00;99973.69;4995922;28;20228;-84
2022/11/24 09:03:53;;;;;;;7.43;2.55;;;9.20;99.90;;;9.13;100.00;99971.03;5001600;28;20242;-83
2022/11/24 09:06:24;;;;;;;8.20;2.80;;;9.20;99.90;;;9.07;100.00;99964.78;5001095;28;20239;-84
2022/11/24 09:08:54;;;;;;;14.82;4.95;;;9.10;99.90;;;9.06;100.00;99969.19;5007279;28;20238;-84
2022/11/24 09:11:23;;;;;;;7.95;2.83;;;9.10;99.90;;;9.06;100.00;99971.81;5006511;28;20231;-84
2022/11/24 09:13:51;;;;;;;8.38;2.72;;;9.10;99.90;;;9.09;100.00;99976.22;5007674;28;20227;-83
2022/11/24 09:16:25;;;;;;;6.97;2.40;;;9.10;99.90;;;9.03;100.00;99966.50;4993555;28;20235;-84
2022/11/24 09:19:02;;;;;;;11.88;3.65;;;9.10;99.90;;;9.03;100.00;99976.19;4995098;28;20239;-83
2022/11/24 09:21:33;;;;;;;9.60;3.22;;;9.10;99.90;;;8.99;100.00;99962.09;4997623;28;20231;-84
2022/11/24 09:24:00;;;;;;;6.68;2.42;;;9.00;99.90;;;8.97;100.00;99972.63;5001510;28;20228;-84
2022/11/24 09:26:31;;;;;;;7.70;2.80;;;9.00;99.90;;;8.94;100.00;99971.72;5003835;28;20227;-84
2022/11/24 09:29:01;;;;;;;14.60;5.30;;;9.00;99.90;;;8.96;100.00;99977.88;5002037;28;20243;-84
2022/11/24 09:31:33;;;;;;;8.10;2.83;;;9.00;99.90;;;8.99;100.00;99984.06;5006141;28;20266;-84
2022/11/24 09:34:04;;;;;;;8.60;3.08;;;9.00;99.90;;;8.98;100.00;99984.94;4995615;28;20231;-84
2022/11/24 09:36:33;;;;;;;9.23;3.22;;;9.00;99.90;;;8.96;100.00;99991.94;5003578;28;20227;-84
2022/11/24 09:39:10;;;;;;;8.05;2.72;;;9.00;99.90;;;8.93;100.00;99997.19;5002040;28;20228;-84
2022/11/24 09:42:17;;;;;;;5.85;2.38;;;9.00;99.90;;;8.91;100.00;100004.22;4999460;28;20759;-84
2022/11/24 09:45:13;;;;;;;7.22;2.63;;;9.00;99.90;;;8.93;100.00;100017.41;4992723;28;20231;-84
2022/11/24 09:48:01;;;;;;;7.18;2.63;;;8.90;99.90;;;8.95;100.00;100027.09;5010402;28;20254;-84
2022/11/24 09:50:35;;;;;;;7.10;2.55;;;8.90;99.90;;;9.07;100.00;100028.09;4998893;28;20271;-83
2022/11/24 09:53:04;;;;;;;8.75;3.40;;;9.00;99.90;;;9.19;100.00;100026.47;5001907;28;20235;-84
2022/11/24 09:55:45;;;;;;;5.75;2.30;;;9.20;99.90;;;9.22;100.00;100021.22;5008449;28;20362;-84
2022/11/24 09:58:33;;;;;;;7.03;2.58;;;9.20;99.90;;;9.34;100.00;100033.63;5020342;28;20259;-84
2022/11/24 10:01:04;;;;;;;8.40;3.22;;;9.30;99.90;;;9.50;100.00;100035.50;4997299;28;20326;-84
2022/11/24 10:03:36;;;;;;;6.80;2.67;;;9.40;99.90;;;9.61;100.00;100035.56;5002466;28;20228;-84
2022/11/24 10:06:33;;;;;;;8.23;3.03;;;9.50;99.90;;;9.86;100.00;100066.53;4994337;28;20290;-84
2022/11/24 10:09:31;;;;;;;7.55;2.78;;;10.00;99.90;;;9.88;100.00;100038.38;5005307;28;20320;-83
2022/11/24 10:12:19;;;;;;;8.55;3.03;;;9.90;99.90;;;9.88;100.00;100030.44;4999509;28;20239;-84
2022/11/24 10:15:11;;;;;;;9.00;3.28;;;9.90;99.90;;;9.85;100.00;100019.88;4999917;28;20315;-83
2022/11/24 10:17:57;;;;;;;7.43;2.70;;;9.80;99.90;;;9.88;100.00;100030.44;5001947;28;20282;-84
2022/11/24 10:21:12;;;;;;;9.32;3.22;;;9.90;99.90;;;9.85;100.00;100016.34;5000969;28;20267;-83
2022/11/24 10:24:31;;;;;;;6.03;2.33;;;9.80;99.90;;;9.88;100.00;100019.88;4979368;28;20251;-83
2022/11/24 10:27:12;;;;;;;5.95;2.40;;;9.80;99.90;;;9.84;100.00;100007.53;4985650;28;20231;-83
2022/11/24 10:29:41;;;;;;;5.72;2.30;;;9.80;99.90;;;9.91;100.00;100019.91;5017599;28;20228;-83
2022/11/24 10:32:24;;;;;;;8.18;3.08;;;9.90;99.90;;;9.91;100.00;100008.44;4997610;28;20281;-83
2022/11/24 10:34:53;;;;;;;7.78;3.05;;;9.90;99.90;;;9.91;100.00;100009.34;5000437;28;20319;-83
2022/11/24 10:37:34;;;;;;;7.47;2.95;;;9.90;99.90;;;9.87;100.00;100001.38;5000372;28;20274;-82
2022/11/24 10:40:36;;;;;;;5.07;2.15;;;9.90;99.90;;;9.91;100.00;99993.47;5010075;28;20323;-83
2022/11/24 10:43:27;;;;;;;8.88;3.33;;;9.90;99.90;;;10.00;100.00;99989.13;5002482;28;20293;-84
2022/11/24 10:46:13;;;;;;;5.70;2.22;;;10.00;99.90;;;9.87;100.00;99999.63;5004220;28;20231;-83